createdAt,value
2022-09-17T00:01:45.703Z,98748.19
2022-09-17T00:04:14.654Z,98744.50
2022-09-17T00:06:43.453Z,98746.66
2022-09-17T00:09:12.335Z,98748.81
2022-09-17T00:11:43.190Z,98763.84
2022-09-17T00:14:16.319Z,98752.75
2022-09-17T00:16:49.158Z,98752.66
2022-09-17T00:19:20.044Z,98747.50
2022-09-17T00:21:49.198Z,98748.44
2022-09-17T00:24:18.992Z,98748.78
2022-09-17T00:26:47.919Z,98745.03
2022-09-17T00:29:18.198Z,98743.16
2022-09-17T00:31:46.968Z,98747.06
2022-09-17T00:34:15.682Z,98740.62
2022-09-17T00:36:44.601Z,98734.84
2022-09-17T00:39:16.665Z,98721.97
2022-09-17T00:41:45.715Z,98720.06
2022-09-17T00:44:41.318Z,98712.50
2022-09-17T00:47:15.447Z,98708.59
2022-09-17T00:49:46.653Z,98711.63
2022-09-17T00:52:17.753Z,98707.50
2022-09-17T00:54:51.146Z,98712.59
2022-09-17T00:57:20.385Z,98708.97
2022-09-17T00:59:50.571Z,98711.03
2022-09-17T01:02:20.299Z,98708.88
2022-09-17T01:04:49.505Z,98698.19
2022-09-17T01:07:38.654Z,98696.19
2022-09-17T01:10:14.175Z,98689.81
2022-09-17T01:12:54.855Z,98703.09
2022-09-17T01:15:29.943Z,98699.03
2022-09-17T01:18:13.066Z,98696.44
2022-09-17T01:21:05.945Z,98699.63
2022-09-17T01:23:53.823Z,98697.87
2022-09-17T01:26:51.453Z,98713.97
2022-09-17T01:29:34.131Z,98718.84
2022-09-17T01:32:09.279Z,98723.84
2022-09-17T01:34:45.314Z,98719.66
2022-09-17T01:37:16.144Z,98719.28
2022-09-17T01:39:50.874Z,98729.59
2022-09-17T01:42:28.087Z,98741.19
2022-09-17T01:45:01.626Z,98744.72
2022-09-17T01:47:36.830Z,98746.75
2022-09-17T01:50:08.791Z,98746.84
2022-09-17T01:52:39.783Z,98746.09
2022-09-17T01:55:11.376Z,98737.22
2022-09-17T01:57:43.953Z,98741.44
2022-09-17T02:00:14.730Z,98743.94
2022-09-17T02:02:49.136Z,98740.53
2022-09-17T02:05:20.792Z,98733.75
2022-09-17T02:07:53.501Z,98728.59
2022-09-17T02:10:24.206Z,98729.22
2022-09-17T02:12:57.197Z,98724.69
2022-09-17T02:15:28.984Z,98719.28
2022-09-17T02:18:04.033Z,98728.59
2022-09-17T02:20:39.398Z,98724.91
2022-09-17T02:23:11.898Z,98716.84
2022-09-17T02:25:45.164Z,98724.28
2022-09-17T02:28:17.537Z,98721.97
2022-09-17T02:30:46.658Z,98721.13
2022-09-17T02:33:16.682Z,98719.91
2022-09-17T02:35:47.398Z,98705.81
2022-09-17T02:38:23.202Z,98704.38
2022-09-17T02:40:55.962Z,98712.91
2022-09-17T02:43:29.316Z,98706.22
2022-09-17T02:46:11.903Z,98698.06
2022-09-17T02:49:11.962Z,98693.00
2022-09-17T02:51:47.241Z,98690.59
2022-09-17T02:54:21.758Z,98689.28
2022-09-17T02:56:56.600Z,98688.38
2022-09-17T02:59:28.145Z,98677.06
2022-09-17T03:01:57.942Z,98677.03
2022-09-17T03:04:29.053Z,98666.84
2022-09-17T03:06:59.561Z,98663.22
2022-09-17T03:09:28.514Z,98661.91
2022-09-17T03:11:57.341Z,98657.06
2022-09-17T03:14:25.979Z,98653.34
2022-09-17T03:16:54.895Z,98652.00
2022-09-17T03:19:23.538Z,98646.97
2022-09-17T03:21:53.508Z,98622.19
2022-09-17T03:24:22.413Z,98616.03
2022-09-17T03:26:51.105Z,98608.19
2022-09-17T03:29:19.922Z,98606.44
2022-09-17T03:31:48.899Z,98601.59
2022-09-17T03:34:17.851Z,98593.69
2022-09-17T03:36:46.452Z,98579.78
2022-09-17T03:39:16.710Z,98568.34
2022-09-17T03:41:45.330Z,98575.25
2022-09-17T03:44:15.394Z,98576.00
2022-09-17T03:46:44.363Z,98585.69
2022-09-17T03:49:13.026Z,98581.91
2022-09-17T03:51:41.646Z,98585.78
2022-09-17T03:54:10.758Z,98583.47
2022-09-17T03:56:40.735Z,98589.69
2022-09-17T03:59:09.385Z,98585.56
2022-09-17T04:01:38.332Z,98588.91
2022-09-17T04:04:07.908Z,98603.12
2022-09-17T04:06:36.741Z,98610.09
2022-09-17T04:09:05.715Z,98611.44
2022-09-17T04:11:34.592Z,98607.50
2022-09-17T04:14:04.689Z,98606.63
2022-09-17T04:16:33.364Z,98603.97
2022-09-17T04:19:02.268Z,98598.16
2022-09-17T04:21:31.013Z,98596.06
2022-09-17T04:24:00.008Z,98594.34
2022-09-17T04:26:28.904Z,98582.78
2022-09-17T04:28:57.548Z,98574.78
2022-09-17T04:31:27.529Z,98577.03
2022-09-17T04:33:56.444Z,98580.84
2022-09-17T04:36:28.385Z,98572.78
2022-09-17T04:38:57.409Z,98563.19
2022-09-17T04:41:26.044Z,98565.78
2022-09-17T04:43:54.642Z,98570.75
2022-09-17T04:46:23.604Z,98563.72
2022-09-17T04:48:53.678Z,98560.66
2022-09-17T04:51:22.337Z,98567.50
2022-09-17T04:53:51.265Z,98564.72
2022-09-17T04:56:20.497Z,98560.28
2022-09-17T04:58:49.655Z,98559.81
2022-09-17T05:01:18.882Z,98563.72
2022-09-17T05:03:47.579Z,98557.28
2022-09-17T05:06:17.552Z,98553.63
2022-09-17T05:08:46.483Z,98550.72
2022-09-17T05:11:15.138Z,98559.03
2022-09-17T05:13:44.094Z,98563.34
2022-09-17T05:16:13.114Z,98571.16
2022-09-17T05:18:41.858Z,98575.59
2022-09-17T05:21:10.474Z,98585.41
2022-09-17T05:23:40.712Z,98580.59
2022-09-17T05:26:09.350Z,98586.47
2022-09-17T05:28:37.950Z,98599.56
2022-09-17T05:31:07.131Z,98608.81
2022-09-17T05:33:35.870Z,98608.47
2022-09-17T05:36:05.052Z,98616.38
2022-09-17T05:38:33.966Z,98614.56
2022-09-17T05:41:07.131Z,98623.78
2022-09-17T05:43:36.156Z,98605.91
2022-09-17T05:46:05.912Z,98616.19
2022-09-17T05:48:35.455Z,98630.41
2022-09-17T05:51:04.594Z,98636.53
2022-09-17T05:53:33.205Z,98636.66
2022-09-17T05:56:02.078Z,98637.28
2022-09-17T05:58:33.151Z,98637.50
2022-09-17T06:01:02.173Z,98641.81
2022-09-17T06:03:31.059Z,98662.84
2022-09-17T06:06:03.003Z,98650.94
2022-09-17T06:08:31.962Z,98665.59
2022-09-17T06:11:05.139Z,98672.09
2022-09-17T06:13:35.812Z,98665.16
2022-09-17T06:16:05.322Z,98651.31
2022-09-17T06:18:34.279Z,98644.44
2022-09-17T06:21:04.262Z,98642.81
2022-09-17T06:23:35.312Z,98647.34
2022-09-17T06:26:05.300Z,98654.41
2022-09-17T06:28:40.601Z,98658.97
2022-09-17T06:31:12.039Z,98655.97
2022-09-17T06:33:40.818Z,98646.16
2022-09-17T06:36:14.196Z,98659.59
2022-09-17T06:38:44.041Z,98650.44
2022-09-17T06:41:14.600Z,98657.44
2022-09-17T06:43:45.103Z,98654.41
2022-09-17T06:46:13.772Z,98658.16
2022-09-17T06:48:42.532Z,98665.91
2022-09-17T06:51:12.424Z,98668.56
2022-09-17T06:53:41.373Z,98676.38
2022-09-17T06:56:10.681Z,98679.06
2022-09-17T06:58:43.347Z,98673.00
2022-09-17T07:01:14.053Z,98668.81
2022-09-17T07:03:44.055Z,98671.06
2022-09-17T07:06:12.917Z,98673.63
2022-09-17T07:08:42.071Z,98672.63
2022-09-17T07:11:11.097Z,98671.69
2022-09-17T07:13:39.806Z,98688.84
2022-09-17T07:16:08.882Z,98685.31
2022-09-17T07:18:40.186Z,98674.03
2022-09-17T07:21:10.393Z,98656.97
2022-09-17T07:23:39.306Z,98650.31
2022-09-17T07:26:10.064Z,98652.44
2022-09-17T07:28:40.272Z,98666.87
2022-09-17T07:31:15.212Z,98662.44
2022-09-17T07:33:46.330Z,98664.22
2022-09-17T07:36:18.068Z,98664.28
2022-09-17T07:38:47.255Z,98666.84
2022-09-17T07:41:17.155Z,98673.22
2022-09-17T07:43:46.102Z,98678.75
2022-09-17T07:46:17.185Z,98685.97
2022-09-17T07:48:49.650Z,98689.91
2022-09-17T07:51:19.640Z,98687.81
2022-09-17T07:53:50.490Z,98689.41
2022-09-17T07:56:19.408Z,98677.78
2022-09-17T07:58:48.063Z,98676.91
2022-09-17T08:01:17.771Z,98680.38
2022-09-17T08:03:51.729Z,98686.94
2022-09-17T08:06:22.226Z,98694.62
2022-09-17T08:08:51.212Z,98697.13
2022-09-17T08:11:44.526Z,98719.03
2022-09-17T08:14:12.725Z,98725.75
2022-09-17T08:16:41.611Z,98716.69
2022-09-17T08:19:11.846Z,98722.50
2022-09-17T08:21:40.482Z,98718.03
2022-09-17T08:24:09.234Z,98716.44
2022-09-17T08:26:38.873Z,98723.50
2022-09-17T08:29:07.696Z,98729.34
2022-09-17T08:31:36.478Z,98728.78
2022-09-17T08:34:09.318Z,98726.66
2022-09-17T08:36:39.472Z,98727.94
2022-09-17T08:39:08.500Z,98724.69
2022-09-17T08:41:48.032Z,98724.75
2022-09-17T08:44:24.558Z,98727.16
2022-09-17T08:46:55.901Z,98701.69
2022-09-17T08:49:32.864Z,98697.91
2022-09-17T08:52:24.960Z,98688.69
2022-09-17T08:55:02.086Z,98693.50
2022-09-17T08:57:36.122Z,98694.62
2022-09-17T09:00:10.477Z,98701.31
2022-09-17T09:02:57.102Z,98715.63
2022-09-17T09:05:30.326Z,98715.56
2022-09-17T09:08:04.638Z,98720.09
2022-09-17T09:10:44.401Z,98711.88
2022-09-17T09:13:15.428Z,98714.94
2022-09-17T09:15:49.005Z,98715.66
2022-09-17T09:18:21.204Z,98718.91
2022-09-17T09:20:53.553Z,98707.97
2022-09-17T09:23:30.666Z,98711.78
2022-09-17T09:26:05.608Z,98715.88
2022-09-17T09:28:49.888Z,98714.25
2022-09-17T09:31:43.217Z,98704.69
2022-09-17T09:34:16.069Z,98708.28
2022-09-17T09:36:45.420Z,98707.28
2022-09-17T09:39:20.332Z,98702.22
2022-09-17T09:41:51.575Z,98711.31
2022-09-17T09:44:20.216Z,98719.06
2022-09-17T09:47:09.951Z,98718.66
2022-09-17T09:49:53.568Z,98711.06
2022-09-17T09:52:33.788Z,98702.06
2022-09-17T09:55:26.883Z,98716.94
2022-09-17T09:58:00.424Z,98716.84
2022-09-17T10:00:31.568Z,98721.16
2022-09-17T10:03:08.083Z,98732.81
2022-09-17T10:05:36.905Z,98733.94
2022-09-17T10:08:13.668Z,98715.72
2022-09-17T10:10:57.167Z,98704.00
2022-09-17T10:13:27.029Z,98704.16
2022-09-17T10:15:55.769Z,98707.25
2022-09-17T10:18:25.865Z,98703.22
2022-09-17T10:20:59.736Z,98704.00
2022-09-17T10:23:30.399Z,98695.44
2022-09-17T10:26:00.987Z,98676.94
2022-09-17T10:28:35.996Z,98673.94
2022-09-17T10:31:09.139Z,98659.59
2022-09-17T10:33:41.441Z,98653.41
2022-09-17T10:36:14.777Z,98664.72
2022-09-17T10:38:44.711Z,98678.69
2022-09-17T10:41:21.815Z,98671.03
2022-09-17T10:43:51.036Z,98669.84
2022-09-17T10:46:26.631Z,98677.06
2022-09-17T10:49:09.688Z,98662.00
2022-09-17T10:51:39.075Z,98645.34
2022-09-17T10:54:26.584Z,98630.88
2022-09-17T10:56:59.045Z,98624.53
2022-09-17T10:59:56.964Z,98603.72
2022-09-17T11:02:52.601Z,98606.28
2022-09-17T11:05:37.234Z,98618.81
2022-09-17T11:08:10.218Z,98632.66
2022-09-17T11:10:43.969Z,98653.72
2022-09-17T11:13:22.850Z,98663.91
2022-09-17T11:16:03.891Z,98655.97
2022-09-17T11:18:34.185Z,98639.75
2022-09-17T11:21:27.840Z,98636.44
2022-09-17T11:24:09.817Z,98662.00
2022-09-17T11:26:41.557Z,98683.41
2022-09-17T11:29:23.861Z,98681.91
2022-09-17T11:32:02.066Z,98668.13
2022-09-17T11:34:32.989Z,98660.16
2022-09-17T11:37:06.842Z,98654.53
2022-09-17T11:39:41.801Z,98640.03
2022-09-17T11:42:13.648Z,98650.72
2022-09-17T11:44:48.435Z,98648.12
2022-09-17T11:47:20.520Z,98639.94
2022-09-17T11:49:52.643Z,98622.75
2022-09-17T11:52:23.584Z,98606.53
2022-09-17T11:54:53.794Z,98593.47
2022-09-17T11:57:24.606Z,98591.00
2022-09-17T11:59:55.493Z,98572.72
2022-09-17T12:02:28.301Z,98564.19
2022-09-17T12:05:00.897Z,98548.13
2022-09-17T12:07:38.093Z,98546.66
2022-09-17T12:10:20.600Z,98550.12
2022-09-17T12:12:54.258Z,98546.44
2022-09-17T12:15:26.772Z,98546.34
2022-09-17T12:18:27.682Z,98541.22
2022-09-17T12:20:52.240Z,98536.72
2022-09-17T12:23:26.697Z,98528.91
2022-09-17T12:26:01.884Z,98525.28
2022-09-17T12:28:36.545Z,98525.44
2022-09-17T12:31:11.584Z,98521.53
2022-09-17T12:33:42.994Z,98518.94
2022-09-17T12:36:24.732Z,98517.00
2022-09-17T12:39:11.190Z,98515.31
2022-09-17T12:41:47.393Z,98507.69
2022-09-17T12:44:27.685Z,98497.00
2022-09-17T12:47:16.531Z,98491.25
2022-09-17T12:49:58.745Z,98507.56
2022-09-17T12:52:36.458Z,98519.78
2022-09-17T12:55:22.187Z,98527.38
2022-09-17T12:57:57.826Z,98528.78
2022-09-17T13:00:26.556Z,98517.38
2022-09-17T13:03:03.275Z,98532.00
2022-09-17T13:05:56.629Z,98524.88
2022-09-17T13:08:56.553Z,98528.84
2022-09-17T13:11:41.420Z,98524.53
2022-09-17T13:14:17.620Z,98514.16
2022-09-17T13:16:49.848Z,98504.78
2022-09-17T13:19:29.173Z,98489.72
2022-09-17T13:22:01.767Z,98494.78
2022-09-17T13:24:31.639Z,98496.22
2022-09-17T13:27:02.090Z,98488.88
2022-09-17T13:29:59.704Z,98480.22
2022-09-17T13:32:47.159Z,98488.66
2022-09-17T13:35:52.045Z,98470.91
2022-09-17T13:38:23.842Z,98464.84
2022-09-17T13:40:54.131Z,98460.19
2022-09-17T13:43:27.164Z,98456.31
2022-09-17T13:46:17.901Z,98463.53
2022-09-17T13:48:50.435Z,98474.66
2022-09-17T13:51:46.381Z,98478.91
2022-09-17T13:54:15.311Z,98460.56
2022-09-17T13:56:46.688Z,98464.22
2022-09-17T13:59:18.735Z,98468.69
2022-09-17T14:02:00.667Z,98470.44
2022-09-17T14:04:47.972Z,98478.22
2022-09-17T14:07:37.231Z,98489.34
2022-09-17T14:10:37.594Z,98503.78
2022-09-17T14:13:26.608Z,98509.22
2022-09-17T14:16:00.764Z,98506.94
2022-09-17T14:18:38.878Z,98511.69
2022-09-17T14:21:14.741Z,98499.84
2022-09-17T14:23:46.723Z,98513.88
2022-09-17T14:26:21.068Z,98506.69
2022-09-17T14:28:55.874Z,98514.44
2022-09-17T14:31:31.119Z,98520.44
2022-09-17T14:34:00.013Z,98523.66
2022-09-17T14:36:29.917Z,98517.84
2022-09-17T14:38:59.902Z,98518.06
2022-09-17T14:41:34.069Z,98523.91
2022-09-17T14:44:05.053Z,98525.03
2022-09-17T14:46:36.586Z,98520.81
2022-09-17T14:49:16.204Z,98525.09
2022-09-17T14:51:45.162Z,98517.44
2022-09-17T14:54:18.998Z,98513.22
2022-09-17T14:56:59.333Z,98512.59
2022-09-17T14:59:42.947Z,98518.34
2022-09-17T15:02:37.503Z,98515.44
2022-09-17T15:05:35.676Z,98520.50
2022-09-17T15:08:12.346Z,98522.59
2022-09-17T15:10:48.960Z,98523.88
2022-09-17T15:13:20.315Z,98522.59
2022-09-17T15:15:54.719Z,98534.78
2022-09-17T15:18:35.214Z,98530.09
2022-09-17T15:21:05.978Z,98531.94
2022-09-17T15:23:35.993Z,98523.81
2022-09-17T15:26:06.694Z,98523.63
2022-09-17T15:28:36.985Z,98511.94
2022-09-17T15:31:07.315Z,98499.31
2022-09-17T15:33:36.379Z,98493.25
2022-09-17T15:36:15.436Z,98494.56
2022-09-17T15:38:45.042Z,98494.31
2022-09-17T15:41:29.870Z,98487.31
2022-09-17T15:44:28.984Z,98490.75
2022-09-17T15:47:37.343Z,98492.56
2022-09-17T15:50:14.631Z,98474.63
2022-09-17T15:52:43.327Z,98460.81
2022-09-17T15:55:29.424Z,98473.44
2022-09-17T15:58:00.271Z,98473.22
2022-09-17T16:00:29.674Z,98487.13
2022-09-17T16:02:58.759Z,98481.72
2022-09-17T16:05:55.724Z,98477.28
2022-09-17T16:08:35.485Z,98471.00
2022-09-17T16:11:04.149Z,98470.91
2022-09-17T16:13:34.371Z,98468.97
2022-09-17T16:16:03.588Z,98475.38
2022-09-17T16:18:32.296Z,98467.69
2022-09-17T16:21:01.266Z,98450.56
2022-09-17T16:23:29.909Z,98459.78
2022-09-17T16:25:58.932Z,98460.81
2022-09-17T16:28:27.997Z,98454.03
2022-09-17T16:30:58.401Z,98450.00
2022-09-17T16:33:28.283Z,98444.56
2022-09-17T16:35:58.133Z,98444.75
2022-09-17T16:38:29.362Z,98443.06
2022-09-17T16:40:58.268Z,98444.28
2022-09-17T16:43:26.886Z,98435.09
2022-09-17T16:46:07.440Z,98443.16
2022-09-17T16:48:36.673Z,98448.75
2022-09-17T16:51:08.463Z,98462.84
2022-09-17T16:53:37.511Z,98452.41
2022-09-17T16:56:08.297Z,98455.84
2022-09-17T16:58:37.797Z,98453.97
2022-09-17T17:01:09.558Z,98448.34
2022-09-17T17:03:38.528Z,98454.81
2022-09-17T17:06:07.663Z,98467.16
2022-09-17T17:08:36.406Z,98480.66
2022-09-17T17:11:05.438Z,98474.25
2022-09-17T17:13:34.060Z,98464.88
2022-09-17T17:16:06.912Z,98457.31
2022-09-17T17:18:37.456Z,98449.22
2022-09-17T17:21:07.285Z,98440.69
2022-09-17T17:23:36.739Z,98427.25
2022-09-17T17:26:05.579Z,98438.22
2022-09-17T17:28:35.098Z,98447.81
2022-09-17T17:31:04.556Z,98448.16
2022-09-17T17:33:33.410Z,98457.19
2022-09-17T17:36:08.311Z,98456.22
2022-09-17T17:38:37.821Z,98450.78
2022-09-17T17:41:07.912Z,98460.25
2022-09-17T17:43:37.191Z,98458.78
2022-09-17T17:46:07.703Z,98458.25
2022-09-17T17:48:36.425Z,98451.44
2022-09-17T17:51:08.164Z,98463.41
2022-09-17T17:53:37.116Z,98469.87
2022-09-17T17:56:07.578Z,98483.91
2022-09-17T17:58:36.952Z,98491.47
2022-09-17T18:01:11.365Z,98499.13
2022-09-17T18:03:40.256Z,98496.03
2022-09-17T18:06:10.437Z,98502.16
2022-09-17T18:08:39.603Z,98508.34
2022-09-17T18:11:09.859Z,98512.88
2022-09-17T18:13:39.559Z,98520.91
2022-09-17T18:16:09.530Z,98522.09
2022-09-17T18:18:44.458Z,98520.63
2022-09-17T18:21:18.853Z,98508.09
2022-09-17T18:23:52.624Z,98510.13
2022-09-17T18:26:23.844Z,98509.50
2022-09-17T18:28:53.487Z,98510.50
2022-09-17T18:31:24.691Z,98516.81
2022-09-17T18:33:57.770Z,98516.34
2022-09-17T18:36:29.383Z,98513.78
2022-09-17T18:39:16.789Z,98523.78
2022-09-17T18:41:50.921Z,98528.00
2022-09-17T18:44:22.038Z,98515.06
2022-09-17T18:46:51.539Z,98514.16
2022-09-17T18:49:20.019Z,98510.62
2022-09-17T18:51:50.012Z,98507.00
2022-09-17T18:54:18.720Z,98506.75
2022-09-17T18:56:47.179Z,98505.28
2022-09-17T18:59:15.512Z,98505.97
2022-09-17T19:01:44.207Z,98497.47
2022-09-17T19:04:12.658Z,98491.37
2022-09-17T19:06:41.772Z,98492.56
2022-09-17T19:09:11.896Z,98500.09
2022-09-17T19:11:40.293Z,98497.50
2022-09-17T19:14:10.008Z,98502.31
2022-09-17T19:16:38.678Z,98503.53
2022-09-17T19:19:07.098Z,98511.75
2022-09-17T19:21:35.422Z,98520.88
2022-09-17T19:24:04.322Z,98533.88
2022-09-17T19:26:34.002Z,98540.34
2022-09-17T19:29:02.382Z,98544.50
2022-09-17T19:31:31.083Z,98529.94
2022-09-17T19:34:00.036Z,98531.47
2022-09-17T19:36:28.451Z,98528.53
2022-09-17T19:38:58.612Z,98530.41
2022-09-17T19:41:26.961Z,98543.59
2022-09-17T19:43:57.260Z,98552.59
2022-09-17T19:46:26.974Z,98546.50
2022-09-17T19:49:01.638Z,98552.63
2022-09-17T19:51:31.973Z,98542.47
2022-09-17T19:54:04.339Z,98556.88
2022-09-17T19:56:33.974Z,98544.72
2022-09-17T19:59:09.127Z,98546.47
2022-09-17T20:01:39.263Z,98540.50
2022-09-17T20:04:10.299Z,98545.87
2022-09-17T20:06:38.629Z,98537.06
2022-09-17T20:09:11.033Z,98547.84
2022-09-17T20:11:40.121Z,98539.00
2022-09-17T20:14:11.849Z,98536.78
2022-09-17T20:16:43.560Z,98540.50
2022-09-17T20:19:16.123Z,98535.56
2022-09-17T20:21:45.035Z,98548.91
2022-09-17T20:24:16.998Z,98550.53
2022-09-17T20:26:46.194Z,98548.13
2022-09-17T20:29:26.221Z,98548.59
2022-09-17T20:32:21.395Z,98548.72
2022-09-17T20:35:05.669Z,98544.84
2022-09-17T20:38:32.855Z,98549.16
2022-09-17T20:40:28.079Z,98553.47
2022-09-17T20:42:56.771Z,98559.03
2022-09-17T20:45:28.729Z,98567.63
2022-09-17T20:47:58.670Z,98576.47
2022-09-17T20:50:29.292Z,98568.63
2022-09-17T20:52:58.153Z,98575.28
2022-09-17T20:55:29.276Z,98566.72
2022-09-17T20:58:00.534Z,98572.94
2022-09-17T21:00:29.667Z,98571.47
2022-09-17T21:03:02.729Z,98572.44
2022-09-17T21:05:32.133Z,98574.28
2022-09-17T21:08:04.768Z,98579.28
2022-09-17T21:10:37.119Z,98570.34
2022-09-17T21:13:05.745Z,98569.66
2022-09-17T21:15:34.425Z,98575.56
2022-09-17T21:18:06.653Z,98569.69
2022-09-17T21:20:41.828Z,98589.66
2022-09-17T21:23:10.153Z,98586.28
2022-09-17T21:25:40.910Z,98588.34
2022-09-17T21:28:10.388Z,98586.66
2022-09-17T21:30:39.627Z,98584.84
2022-09-17T21:33:11.495Z,98590.53
2022-09-17T21:35:43.801Z,98594.88
2022-09-17T21:38:12.283Z,98604.13
2022-09-17T21:40:43.931Z,98591.34
2022-09-17T21:43:12.477Z,98597.75
2022-09-17T21:45:48.715Z,98596.22
2022-09-17T21:48:18.360Z,98596.31
2022-09-17T21:50:52.611Z,98589.44
2022-09-17T21:53:21.043Z,98593.50
2022-09-17T21:55:54.043Z,98604.34
2022-09-17T21:58:22.504Z,98601.44
2022-09-17T22:00:52.835Z,98611.69
2022-09-17T22:03:22.809Z,98614.59
2022-09-17T22:05:52.613Z,98617.03
2022-09-17T22:08:21.203Z,98622.75
2022-09-17T22:10:52.323Z,98618.44
2022-09-17T22:13:20.928Z,98630.72
2022-09-17T22:15:56.455Z,98618.56
2022-09-17T22:18:26.445Z,98629.00
2022-09-17T22:20:55.732Z,98618.41
2022-09-17T22:23:37.921Z,98615.16
2022-09-17T22:26:15.969Z,98618.69
2022-09-17T22:29:09.929Z,98618.31
2022-09-17T22:32:05.310Z,98619.00
2022-09-17T22:34:36.949Z,98627.84
2022-09-17T22:37:10.412Z,98627.09
2022-09-17T22:39:38.977Z,98631.44
2022-09-17T22:42:09.811Z,98646.13
2022-09-17T22:44:41.048Z,98639.00
2022-09-17T22:47:10.269Z,98638.50
2022-09-17T22:49:41.475Z,98644.41
2022-09-17T22:52:10.637Z,98648.28
2022-09-17T22:54:41.074Z,98658.59
2022-09-17T22:57:17.684Z,98645.75
2022-09-17T22:59:46.012Z,98651.91
2022-09-17T23:02:15.537Z,98650.69
2022-09-17T23:04:45.307Z,98652.09
2022-09-17T23:07:13.838Z,98653.00
2022-09-17T23:09:45.588Z,98653.75
2022-09-17T23:12:16.827Z,98654.75
2022-09-17T23:14:50.701Z,98652.41
2022-09-17T23:17:31.099Z,98659.66
2022-09-17T23:20:03.478Z,98647.94
2022-09-17T23:22:31.823Z,98656.38
2022-09-17T23:25:05.370Z,98653.00
2022-09-17T23:27:33.704Z,98655.97
2022-09-17T23:30:06.063Z,98657.69
2022-09-17T23:32:34.438Z,98658.91
2022-09-17T23:35:08.992Z,98657.84
2022-09-17T23:37:37.473Z,98653.53
2022-09-17T23:40:10.618Z,98672.47
2022-09-17T23:42:39.029Z,98659.69
2022-09-17T23:45:13.985Z,98666.41
2022-09-17T23:47:42.268Z,98660.94
2022-09-17T23:50:13.470Z,98661.16
2022-09-17T23:52:42.484Z,98656.94
2022-09-17T23:55:15.713Z,98650.84
2022-09-17T23:57:48.558Z,98663.59
